sensor_id;sensor_type;location;lat;lon;timestamp;P1;durP1;ratioP1;P2;durP2;ratioP2
3841;SDS011;1936;47.074;15.336;2022-12-18T00:01:04;3.90;;;3.50;;
3841;SDS011;1936;47.074;15.336;2022-12-18T00:03:15;5.82;;;3.83;;
3841;SDS011;1936;47.074;15.336;2022-12-18T00:05:21;7.30;;;4.35;;
3841;SDS011;1936;47.074;15.336;2022-12-18T00:07:24;7.63;;;3.60;;
3841;SDS011;1936;47.074;15.336;2022-12-18T00:09:28;4.45;;;3.10;;
3841;SDS011;1936;47.074;15.336;2022-12-18T00:11:40;5.35;;;3.50;;
3841;SDS011;1936;47.074;15.336;2022-12-18T00:13:44;4.35;;;3.40;;
3841;SDS011;1936;47.074;15.336;2022-12-18T00:15:48;4.53;;;3.58;;
3841;SDS011;1936;47.074;15.336;2022-12-18T00:17:51;8.13;;;4.47;;
3841;SDS011;1936;47.074;15.336;2022-12-18T00:19:54;5.85;;;3.80;;
3841;SDS011;1936;47.074;15.336;2022-12-18T00:21:59;4.65;;;3.38;;
3841;SDS011;1936;47.074;15.336;2022-12-18T00:24:03;6.10;;;4.20;;
3841;SDS011;1936;47.074;15.336;2022-12-18T00:26:07;5.05;;;4.15;;
3841;SDS011;1936;47.074;15.336;2022-12-18T00:28:16;6.15;;;4.00;;
3841;SDS011;1936;47.074;15.336;2022-12-18T00:30:20;7.05;;;4.32;;
3841;SDS011;1936;47.074;15.336;2022-12-18T00:32:23;5.40;;;4.22;;
3841;SDS011;1936;47.074;15.336;2022-12-18T00:34:26;8.93;;;4.82;;
3841;SDS011;1936;47.074;15.336;2022-12-18T00:36:31;6.95;;;4.45;;
3841;SDS011;1936;47.074;15.336;2022-12-18T00:38:37;7.70;;;4.53;;
3841;SDS011;1936;47.074;15.336;2022-12-18T00:40:41;3.97;;;3.25;;
3841;SDS011;1936;47.074;15.336;2022-12-18T00:42:44;6.05;;;3.92;;
3841;SDS011;1936;47.074;15.336;2022-12-18T00:45:07;5.43;;;3.35;;
3841;SDS011;1936;47.074;15.336;2022-12-18T00:47:13;4.97;;;3.80;;
3841;SDS011;1936;47.074;15.336;2022-12-18T00:49:17;4.20;;;3.47;;
3841;SDS011;1936;47.074;15.336;2022-12-18T00:51:22;5.75;;;3.65;;
3841;SDS011;1936;47.074;15.336;2022-12-18T00:53:26;3.67;;;3.25;;
3841;SDS011;1936;47.074;15.336;2022-12-18T00:55:30;6.75;;;4.55;;
3841;SDS011;1936;47.074;15.336;2022-12-18T00:57:34;6.28;;;3.55;;
3841;SDS011;1936;47.074;15.336;2022-12-18T00:59:37;4.57;;;3.58;;
3841;SDS011;1936;47.074;15.336;2022-12-18T01:01:41;3.50;;;3.03;;
3841;SDS011;1936;47.074;15.336;2022-12-18T01:03:44;3.95;;;3.30;;
3841;SDS011;1936;47.074;15.336;2022-12-18T01:05:48;6.22;;;4.05;;
3841;SDS011;1936;47.074;15.336;2022-12-18T01:07:51;5.10;;;3.63;;
3841;SDS011;1936;47.074;15.336;2022-12-18T01:09:55;4.28;;;3.67;;
3841;SDS011;1936;47.074;15.336;2022-12-18T01:12:00;6.22;;;4.38;;
3841;SDS011;1936;47.074;15.336;2022-12-18T01:14:03;4.80;;;3.67;;
3841;SDS011;1936;47.074;15.336;2022-12-18T01:16:07;3.10;;;2.80;;
3841;SDS011;1936;47.074;15.336;2022-12-18T01:18:13;4.57;;;3.10;;
3841;SDS011;1936;47.074;15.336;2022-12-18T01:20:16;6.43;;;3.58;;
3841;SDS011;1936;47.074;15.336;2022-12-18T01:22:20;5.15;;;4.28;;
3841;SDS011;1936;47.074;15.336;2022-12-18T01:24:23;3.85;;;2.60;;
3841;SDS011;1936;47.074;15.336;2022-12-18T01:26:27;3.38;;;2.95;;
3841;SDS011;1936;47.074;15.336;2022-12-18T01:28:32;6.35;;;3.75;;
3841;SDS011;1936;47.074;15.336;2022-12-18T01:30:35;5.30;;;3.45;;
3841;SDS011;1936;47.074;15.336;2022-12-18T01:32:39;6.47;;;3.70;;
3841;SDS011;1936;47.074;15.336;2022-12-18T01:34:42;4.43;;;2.63;;
3841;SDS011;1936;47.074;15.336;2022-12-18T01:36:45;4.93;;;3.50;;
3841;SDS011;1936;47.074;15.336;2022-12-18T01:38:49;4.55;;;3.47;;
3841;SDS011;1936;47.074;15.336;2022-12-18T01:40:56;6.38;;;3.20;;
3841;SDS011;1936;47.074;15.336;2022-12-18T01:43:00;5.05;;;3.10;;
3841;SDS011;1936;47.074;15.336;2022-12-18T01:45:06;5.13;;;3.15;;
3841;SDS011;1936;47.074;15.336;2022-12-18T01:47:27;4.25;;;3.25;;
3841;SDS011;1936;47.074;15.336;2022-12-18T01:49:34;3.63;;;2.97;;
3841;SDS011;1936;47.074;15.336;2022-12-18T01:51:37;7.63;;;3.33;;
3841;SDS011;1936;47.074;15.336;2022-12-18T01:53:41;5.03;;;3.28;;
3841;SDS011;1936;47.074;15.336;2022-12-18T01:55:47;5.93;;;3.05;;
3841;SDS011;1936;47.074;15.336;2022-12-18T01:57:57;4.95;;;3.70;;
3841;SDS011;1936;47.074;15.336;2022-12-18T02:00:04;4.07;;;2.88;;
3841;SDS011;1936;47.074;15.336;2022-12-18T02:02:11;7.28;;;3.85;;
3841;SDS011;1936;47.074;15.336;2022-12-18T02:04:19;5.43;;;3.47;;
3841;SDS011;1936;47.074;15.336;2022-12-18T02:06:23;3.53;;;2.78;;
3841;SDS011;1936;47.074;15.336;2022-12-18T02:08:33;3.55;;;2.85;;
3841;SDS011;1936;47.074;15.336;2022-12-18T02:10:45;7.50;;;4.65;;
3841;SDS011;1936;47.074;15.336;2022-12-18T02:12:57;6.65;;;3.50;;
3841;SDS011;1936;47.074;15.336;2022-12-18T02:15:13;8.07;;;4.18;;
3841;SDS011;1936;47.074;15.336;2022-12-18T02:17:20;4.28;;;2.58;;
3841;SDS011;1936;47.074;15.336;2022-12-18T02:19:37;5.00;;;3.53;;
3841;SDS011;1936;47.074;15.336;2022-12-18T02:21:49;3.45;;;2.15;;
3841;SDS011;1936;47.074;15.336;2022-12-18T02:24:02;3.85;;;2.92;;
3841;SDS011;1936;47.074;15.336;2022-12-18T02:26:20;3.92;;;2.85;;
3841;SDS011;1936;47.074;15.336;2022-12-18T02:28:30;5.05;;;3.50;;
3841;SDS011;1936;47.074;15.336;2022-12-18T02:30:36;4.38;;;2.95;;
3841;SDS011;1936;47.074;15.336;2022-12-18T02:32:42;4.70;;;3.28;;
3841;SDS011;1936;47.074;15.336;2022-12-18T02:34:48;4.30;;;3.22;;
3841;SDS011;1936;47.074;15.336;2022-12-18T02:36:53;4.57;;;3.00;;
3841;SDS011;1936;47.074;15.336;2022-12-18T02:38:58;4.82;;;3.20;;
3841;SDS011;1936;47.074;15.336;2022-12-18T02:41:04;3.60;;;2.75;;
3841;SDS011;1936;47.074;15.336;2022-12-18T02:43:10;9.80;;;3.25;;
3841;SDS011;1936;47.074;15.336;2022-12-18T02:45:15;5.25;;;3.85;;
3841;SDS011;1936;47.074;15.336;2022-12-18T02:47:19;6.93;;;3.92;;
3841;SDS011;1936;47.074;15.336;2022-12-18T02:49:31;3.53;;;3.10;;
3841;SDS011;1936;47.074;15.336;2022-12-18T02:51:45;3.97;;;3.42;;
3841;SDS011;1936;47.074;15.336;2022-12-18T02:53:56;5.50;;;3.17;;
3841;SDS011;1936;47.074;15.336;2022-12-18T02:56:06;5.13;;;3.13;;
3841;SDS011;1936;47.074;15.336;2022-12-18T02:58:16;3.28;;;2.97;;
3841;SDS011;1936;47.074;15.336;2022-12-18T03:00:24;4.28;;;2.88;;
3841;SDS011;1936;47.074;15.336;2022-12-18T03:02:36;3.90;;;2.97;;
3841;SDS011;1936;47.074;15.336;2022-12-18T03:04:43;4.25;;;3.28;;
3841;SDS011;1936;47.074;15.336;2022-12-18T03:06:53;3.83;;;3.30;;
3841;SDS011;1936;47.074;15.336;2022-12-18T03:09:01;4.13;;;3.10;;
3841;SDS011;1936;47.074;15.336;2022-12-18T03:11:07;4.35;;;3.80;;
3841;SDS011;1936;47.074;15.336;2022-12-18T03:13:13;5.65;;;3.50;;
3841;SDS011;1936;47.074;15.336;2022-12-18T03:15:20;6.78;;;3.55;;
3841;SDS011;1936;47.074;15.336;2022-12-18T03:17:26;4.88;;;4.03;;
3841;SDS011;1936;47.074;15.336;2022-12-18T03:19:32;3.33;;;2.83;;
3841;SDS011;1936;47.074;15.336;2022-12-18T03:21:38;4.65;;;3.45;;
3841;SDS011;1936;47.074;15.336;2022-12-18T03:23:46;7.35;;;3.65;;
3841;SDS011;1936;47.074;15.336;2022-12-18T03:25:53;4.57;;;3.15;;
3841;SDS011;1936;47.074;15.336;2022-12-18T03:28:07;5.00;;;3.75;;
3841;SDS011;1936;47.074;15.336;2022-12-18T03:30:16;6.50;;;4.18;;
3841;SDS011;1936;47.074;15.336;2022-12-18T03:32:25;5.25;;;3.58;;
3841;SDS011;1936;47.074;15.336;2022-12-18T03:34:33;4.30;;;3.10;;
3841;SDS011;1936;47.074;15.336;2022-12-18T03:36:40;3.67;;;3.30;;
3841;SDS011;1936;47.074;15.336;2022-12-18T03:38:43;5.40;;;3.20;;
3841;SDS011;1936;47.074;15.336;2022-12-18T03:40:50;3.55;;;3.00;;
3841;SDS011;1936;47.074;15.336;2022-12-18T03:43:02;4.85;;;3.85;;
3841;SDS011;1936;47.074;15.336;2022-12-18T03:45:12;4.43;;;3.20;;
3841;SDS011;1936;47.074;15.336;2022-12-18T03:47:24;5.50;;;3.22;;
3841;SDS011;1936;47.074;15.336;2022-12-18T03:49:33;5.03;;;3.53;;
3841;SDS011;1936;47.074;15.336;2022-12-18T03:51:39;3.75;;;3.05;;
3841;SDS011;1936;47.074;15.336;2022-12-18T03:53:51;5.55;;;3.92;;
3841;SDS011;1936;47.074;15.336;2022-12-18T03:55:59;3.83;;;3.17;;
3841;SDS011;1936;47.074;15.336;2022-12-18T03:58:04;6.07;;;3.55;;
3841;SDS011;1936;47.074;15.336;2022-12-18T04:00:10;5.82;;;4.32;;
3841;SDS011;1936;47.074;15.336;2022-12-18T04:02:15;5.20;;;3.88;;
3841;SDS011;1936;47.074;15.336;2022-12-18T04:04:21;3.35;;;2.67;;
3841;SDS011;1936;47.074;15.336;2022-12-18T04:06:27;7.03;;;3.35;;
3841;SDS011;1936;47.074;15.336;2022-12-18T04:08:31;6.65;;;3.95;;
3841;SDS011;1936;47.074;15.336;2022-12-18T04:10:37;5.72;;;3.60;;
3841;SDS011;1936;47.074;15.336;2022-12-18T04:12:41;4.40;;;3.50;;
3841;SDS011;1936;47.074;15.336;2022-12-18T04:14:44;6.32;;;3.35;;
3841;SDS011;1936;47.074;15.336;2022-12-18T04:16:48;4.05;;;3.22;;
3841;SDS011;1936;47.074;15.336;2022-12-18T04:18:51;6.07;;;4.03;;
3841;SDS011;1936;47.074;15.336;2022-12-18T04:21:00;4.70;;;3.58;;
3841;SDS011;1936;47.074;15.336;2022-12-18T04:23:03;4.38;;;2.80;;
3841;SDS011;1936;47.074;15.336;2022-12-18T04:25:07;5.05;;;3.35;;
3841;SDS011;1936;47.074;15.336;2022-12-18T04:27:11;6.00;;;3.53;;
3841;SDS011;1936;47.074;15.336;2022-12-18T04:29:15;4.55;;;3.80;;
3841;SDS011;1936;47.074;15.336;2022-12-18T04:31:18;5.15;;;3.50;;
3841;SDS011;1936;47.074;15.336;2022-12-18T04:33:22;6.30;;;3.97;;
3841;SDS011;1936;47.074;15.336;2022-12-18T04:35:25;7.78;;;3.88;;
3841;SDS011;1936;47.074;15.336;2022-12-18T04:37:30;4.85;;;3.60;;
3841;SDS011;1936;47.074;15.336;2022-12-18T04:39:33;7.95;;;3.95;;
3841;SDS011;1936;47.074;15.336;2022-12-18T04:41:37;4.15;;;2.95;;
3841;SDS011;1936;47.074;15.336;2022-12-18T04:43:40;5.00;;;3.10;;
3841;SDS011;1936;47.074;15.336;2022-12-18T04:45:43;4.63;;;3.03;;
3841;SDS011;1936;47.074;15.336;2022-12-18T04:47:47;5.40;;;3.90;;
3841;SDS011;1936;47.074;15.336;2022-12-18T04:49:50;5.65;;;3.50;;
3841;SDS011;1936;47.074;15.336;2022-12-18T04:51:53;4.70;;;3.75;;
3841;SDS011;1936;47.074;15.336;2022-12-18T04:53:58;4.47;;;3.50;;
3841;SDS011;1936;47.074;15.336;2022-12-18T04:56:03;4.30;;;3.90;;
3841;SDS011;1936;47.074;15.336;2022-12-18T04:58:07;5.45;;;3.65;;
3841;SDS011;1936;47.074;15.336;2022-12-18T05:00:11;5.40;;;3.25;;
3841;SDS011;1936;47.074;15.336;2022-12-18T05:02:15;6.78;;;3.80;;
3841;SDS011;1936;47.074;15.336;2022-12-18T05:04:19;4.90;;;3.03;;
3841;SDS011;1936;47.074;15.336;2022-12-18T05:06:22;6.00;;;4.30;;
3841;SDS011;1936;47.074;15.336;2022-12-18T05:08:25;4.20;;;3.10;;
3841;SDS011;1936;47.074;15.336;2022-12-18T05:10:30;3.83;;;2.58;;
3841;SDS011;1936;47.074;15.336;2022-12-18T05:12:38;5.00;;;3.72;;
3841;SDS011;1936;47.074;15.336;2022-12-18T05:15:01;6.82;;;4.22;;
3841;SDS011;1936;47.074;15.336;2022-12-18T05:17:04;5.53;;;3.40;;
3841;SDS011;1936;47.074;15.336;2022-12-18T05:19:08;3.88;;;3.20;;
3841;SDS011;1936;47.074;15.336;2022-12-18T05:21:12;4.93;;;3.80;;
3841;SDS011;1936;47.074;15.336;2022-12-18T05:23:15;5.88;;;3.83;;
3841;SDS011;1936;47.074;15.336;2022-12-18T05:25:18;5.80;;;3.72;;
3841;SDS011;1936;47.074;15.336;2022-12-18T05:27:24;4.15;;;3.00;;
3841;SDS011;1936;47.074;15.336;2022-12-18T05:29:27;6.95;;;3.67;;
3841;SDS011;1936;47.074;15.336;2022-12-18T05:31:31;5.32;;;3.25;;
3841;SDS011;1936;47.074;15.336;2022-12-18T05:33:40;6.43;;;3.67;;
3841;SDS011;1936;47.074;15.336;2022-12-18T05:35:44;5.43;;;3.75;;
3841;SDS011;1936;47.074;15.336;2022-12-18T05:37:52;7.65;;;3.72;;
3841;SDS011;1936;47.074;15.336;2022-12-18T05:39:55;3.85;;;3.22;;
3841;SDS011;1936;47.074;15.336;2022-12-18T05:41:59;5.55;;;4.05;;
3841;SDS011;1936;47.074;15.336;2022-12-18T05:44:04;7.35;;;4.63;;
3841;SDS011;1936;47.074;15.336;2022-12-18T05:46:08;9.07;;;5.20;;
3841;SDS011;1936;47.074;15.336;2022-12-18T05:48:14;4.88;;;3.63;;
3841;SDS011;1936;47.074;15.336;2022-12-18T05:50:18;8.60;;;3.63;;
3841;SDS011;1936;47.074;15.336;2022-12-18T05:52:21;7.82;;;5.10;;
3841;SDS011;1936;47.074;15.336;2022-12-18T05:54:26;7.70;;;4.78;;
3841;SDS011;1936;47.074;15.336;2022-12-18T05:56:29;4.32;;;3.85;;
3841;SDS011;1936;47.074;15.336;2022-12-18T05:58:33;6.15;;;4.65;;
3841;SDS011;1936;47.074;15.336;2022-12-18T06:00:42;4.50;;;3.50;;
3841;SDS011;1936;47.074;15.336;2022-12-18T06:02:47;5.80;;;3.67;;
3841;SDS011;1936;47.074;15.336;2022-12-18T06:04:50;8.63;;;4.20;;
3841;SDS011;1936;47.074;15.336;2022-12-18T06:06:54;4.97;;;3.53;;
3841;SDS011;1936;47.074;15.336;2022-12-18T06:08:57;7.80;;;4.82;;
3841;SDS011;1936;47.074;15.336;2022-12-18T06:11:02;5.35;;;4.80;;
3841;SDS011;1936;47.074;15.336;2022-12-18T06:13:06;6.05;;;3.50;;
3841;SDS011;1936;47.074;15.336;2022-12-18T06:15:10;3.97;;;3.53;;
3841;SDS011;1936;47.074;15.336;2022-12-18T06:17:15;5.40;;;3.97;;
3841;SDS011;1936;47.074;15.336;2022-12-18T06:19:19;5.85;;;3.60;;
3841;SDS011;1936;47.074;15.336;2022-12-18T06:21:23;4.60;;;2.97;;
3841;SDS011;1936;47.074;15.336;2022-12-18T06:23:26;6.45;;;3.65;;
3841;SDS011;1936;47.074;15.336;2022-12-18T06:25:30;5.07;;;3.95;;
3841;SDS011;1936;47.074;15.336;2022-12-18T06:27:33;6.70;;;3.88;;
3841;SDS011;1936;47.074;15.336;2022-12-18T06:29:37;4.32;;;3.38;;
3841;SDS011;1936;47.074;15.336;2022-12-18T06:31:40;3.83;;;3.42;;
3841;SDS011;1936;47.074;15.336;2022-12-18T06:33:45;5.38;;;4.43;;
3841;SDS011;1936;47.074;15.336;2022-12-18T06:35:49;8.18;;;7.32;;
3841;SDS011;1936;47.074;15.336;2022-12-18T06:38:00;11.07;;;9.80;;
3841;SDS011;1936;47.074;15.336;2022-12-18T06:40:04;12.15;;;9.73;;
3841;SDS011;1936;47.074;15.336;2022-12-18T06:42:12;10.15;;;7.30;;
3841;SDS011;1936;47.074;15.336;2022-12-18T06:44:15;9.15;;;7.00;;
3841;SDS011;1936;47.074;15.336;2022-12-18T06:46:19;8.30;;;6.32;;
3841;SDS011;1936;47.074;15.336;2022-12-18T06:48:22;6.32;;;5.10;;
3841;SDS011;1936;47.074;15.336;2022-12-18T06:50:27;5.32;;;4.63;;
3841;SDS011;1936;47.074;15.336;2022-12-18T06:52:32;8.82;;;5.95;;
3841;SDS011;1936;47.074;15.336;2022-12-18T06:54:36;6.80;;;5.90;;
3841;SDS011;1936;47.074;15.336;2022-12-18T06:56:39;7.97;;;6.03;;
3841;SDS011;1936;47.074;15.336;2022-12-18T06:58:42;10.20;;;6.05;;
3841;SDS011;1936;47.074;15.336;2022-12-18T07:00:46;6.70;;;4.88;;
3841;SDS011;1936;47.074;15.336;2022-12-18T07:02:49;7.47;;;5.30;;
3841;SDS011;1936;47.074;15.336;2022-12-18T07:04:53;6.45;;;5.18;;
3841;SDS011;1936;47.074;15.336;2022-12-18T07:06:58;5.38;;;4.30;;
3841;SDS011;1936;47.074;15.336;2022-12-18T07:09:01;6.35;;;4.40;;
3841;SDS011;1936;47.074;15.336;2022-12-18T07:11:04;7.93;;;5.75;;
3841;SDS011;1936;47.074;15.336;2022-12-18T07:13:08;7.22;;;5.20;;
3841;SDS011;1936;47.074;15.336;2022-12-18T07:15:12;8.15;;;5.80;;
3841;SDS011;1936;47.074;15.336;2022-12-18T07:17:15;7.00;;;5.20;;
3841;SDS011;1936;47.074;15.336;2022-12-18T07:19:19;8.85;;;6.30;;
3841;SDS011;1936;47.074;15.336;2022-12-18T07:21:23;9.27;;;6.65;;
3841;SDS011;1936;47.074;15.336;2022-12-18T07:23:28;8.18;;;7.00;;
3841;SDS011;1936;47.074;15.336;2022-12-18T07:25:33;7.72;;;6.63;;
3841;SDS011;1936;47.074;15.336;2022-12-18T07:27:36;9.88;;;7.40;;
3841;SDS011;1936;47.074;15.336;2022-12-18T07:29:40;10.07;;;8.70;;
3841;SDS011;1936;47.074;15.336;2022-12-18T07:31:44;12.65;;;8.52;;
3841;SDS011;1936;47.074;15.336;2022-12-18T07:33:47;10.52;;;7.57;;
3841;SDS011;1936;47.074;15.336;2022-12-18T07:35:51;10.77;;;8.18;;
3841;SDS011;1936;47.074;15.336;2022-12-18T07:37:55;12.30;;;8.68;;
3841;SDS011;1936;47.074;15.336;2022-12-18T07:39:59;10.73;;;8.45;;
3841;SDS011;1936;47.074;15.336;2022-12-18T07:42:03;12.32;;;8.45;;
3841;SDS011;1936;47.074;15.336;2022-12-18T07:44:25;15.38;;;8.63;;
3841;SDS011;1936;47.074;15.336;2022-12-18T07:46:28;13.50;;;8.40;;
3841;SDS011;1936;47.074;15.336;2022-12-18T07:48:32;11.75;;;8.38;;
3841;SDS011;1936;47.074;15.336;2022-12-18T07:50:35;9.90;;;7.30;;
3841;SDS011;1936;47.074;15.336;2022-12-18T07:52:39;13.93;;;8.68;;
3841;SDS011;1936;47.074;15.336;2022-12-18T07:54:42;8.85;;;7.28;;
3841;SDS011;1936;47.074;15.336;2022-12-18T07:56:47;9.48;;;6.55;;
3841;SDS011;1936;47.074;15.336;2022-12-18T07:58:50;9.90;;;6.75;;
3841;SDS011;1936;47.074;15.336;2022-12-18T08:00:54;8.45;;;6.50;;
3841;SDS011;1936;47.074;15.336;2022-12-18T08:03:04;10.82;;;7.30;;
3841;SDS011;1936;47.074;15.336;2022-12-18T08:05:08;9.65;;;7.68;;
3841;SDS011;1936;47.074;15.336;2022-12-18T08:07:11;9.27;;;6.93;;
3841;SDS011;1936;47.074;15.336;2022-12-18T08:09:19;11.18;;;8.43;;
3841;SDS011;1936;47.074;15.336;2022-12-18T08:11:22;9.85;;;7.05;;
3841;SDS011;1936;47.074;15.336;2022-12-18T08:13:29;9.20;;;6.63;;
3841;SDS011;1936;47.074;15.336;2022-12-18T08:15:32;12.57;;;7.15;;
3841;SDS011;1936;47.074;15.336;2022-12-18T08:17:36;8.45;;;6.25;;
3841;SDS011;1936;47.074;15.336;2022-12-18T08:19:39;11.85;;;6.85;;
3841;SDS011;1936;47.074;15.336;2022-12-18T08:21:42;8.73;;;6.32;;
3841;SDS011;1936;47.074;15.336;2022-12-18T08:23:46;9.93;;;7.05;;
3841;SDS011;1936;47.074;15.336;2022-12-18T08:25:51;9.55;;;7.50;;
3841;SDS011;1936;47.074;15.336;2022-12-18T08:27:54;9.90;;;6.97;;
3841;SDS011;1936;47.074;15.336;2022-12-18T08:30:00;75.60;;;15.13;;
3841;SDS011;1936;47.074;15.336;2022-12-18T08:32:07;232.40;;;39.38;;
3841;SDS011;1936;47.074;15.336;2022-12-18T08:34:10;631.22;;;99.97;;
3841;SDS011;1936;47.074;15.336;2022-12-18T08:36:14;2044.03;;;324.35;;
3841;SDS011;1936;47.074;15.336;2022-12-18T08:38:17;876.28;;;147.57;;
3841;SDS011;1936;47.074;15.336;2022-12-18T08:40:21;12.52;;;7.28;;
3841;SDS011;1936;47.074;15.336;2022-12-18T08:42:25;19.13;;;8.50;;
3841;SDS011;1936;47.074;15.336;2022-12-18T08:44:45;6.18;;;5.55;;
3841;SDS011;1936;47.074;15.336;2022-12-18T08:46:50;6.55;;;5.85;;
3841;SDS011;1936;47.074;15.336;2022-12-18T08:48:54;8.55;;;6.13;;
3841;SDS011;1936;47.074;15.336;2022-12-18T08:50:58;6.50;;;5.53;;
3841;SDS011;1936;47.074;15.336;2022-12-18T08:53:02;8.00;;;6.30;;
3841;SDS011;1936;47.074;15.336;2022-12-18T08:55:09;8.13;;;6.00;;
3841;SDS011;1936;47.074;15.336;2022-12-18T08:57:12;6.10;;;5.50;;
3841;SDS011;1936;47.074;15.336;2022-12-18T08:59:17;8.40;;;6.37;;
3841;SDS011;1936;47.074;15.336;2022-12-18T09:01:21;8.17;;;6.20;;
3841;SDS011;1936;47.074;15.336;2022-12-18T09:03:35;6.50;;;5.77;;
3841;SDS011;1936;47.074;15.336;2022-12-18T09:05:40;7.03;;;5.50;;
3841;SDS011;1936;47.074;15.336;2022-12-18T09:07:43;8.30;;;7.00;;
3841;SDS011;1936;47.074;15.336;2022-12-18T09:09:47;7.87;;;6.83;;
3841;SDS011;1936;47.074;15.336;2022-12-18T09:11:50;8.43;;;7.07;;
3841;SDS011;1936;47.074;15.336;2022-12-18T09:13:54;10.60;;;8.30;;
3841;SDS011;1936;47.074;15.336;2022-12-18T09:15:58;9.63;;;7.67;;
3841;SDS011;1936;47.074;15.336;2022-12-18T09:18:05;7.43;;;6.70;;
3841;SDS011;1936;47.074;15.336;2022-12-18T09:20:10;8.90;;;7.60;;
3841;SDS011;1936;47.074;15.336;2022-12-18T09:22:15;8.60;;;7.40;;
3841;SDS011;1936;47.074;15.336;2022-12-18T09:24:18;7.63;;;6.63;;
3841;SDS011;1936;47.074;15.336;2022-12-18T09:26:21;9.37;;;7.80;;
3841;SDS011;1936;47.074;15.336;2022-12-18T09:28:25;9.23;;;7.53;;
3841;SDS011;1936;47.074;15.336;2022-12-18T09:30:29;11.80;;;8.23;;
3841;SDS011;1936;47.074;15.336;2022-12-18T09:32:35;10.33;;;8.10;;
3841;SDS011;1936;47.074;15.336;2022-12-18T09:34:38;8.93;;;7.97;;
3841;SDS011;1936;47.074;15.336;2022-12-18T09:36:44;11.07;;;7.97;;
3841;SDS011;1936;47.074;15.336;2022-12-18T09:38:48;11.50;;;9.67;;
3841;SDS011;1936;47.074;15.336;2022-12-18T09:40:52;10.77;;;9.30;;
3841;SDS011;1936;47.074;15.336;2022-12-18T09:43:03;11.23;;;9.97;;
3841;SDS011;1936;47.074;15.336;2022-12-18T09:45:11;12.07;;;9.60;;
3841;SDS011;1936;47.074;15.336;2022-12-18T09:47:18;13.30;;;9.50;;
3841;SDS011;1936;47.074;15.336;2022-12-18T09:49:27;9.73;;;8.50;;
3841;SDS011;1936;47.074;15.336;2022-12-18T09:51:33;12.90;;;9.70;;
3841;SDS011;1936;47.074;15.336;2022-12-18T09:53:42;10.90;;;7.83;;
3841;SDS011;1936;47.074;15.336;2022-12-18T09:55:49;10.70;;;8.53;;
3841;SDS011;1936;47.074;15.336;2022-12-18T09:57:56;13.48;;;10.05;;
3841;SDS011;1936;47.074;15.336;2022-12-18T10:00:15;11.65;;;9.30;;
3841;SDS011;1936;47.074;15.336;2022-12-18T10:02:22;16.42;;;9.95;;
3841;SDS011;1936;47.074;15.336;2022-12-18T10:04:28;12.75;;;9.70;;
3841;SDS011;1936;47.074;15.336;2022-12-18T10:06:35;12.02;;;8.95;;
3841;SDS011;1936;47.074;15.336;2022-12-18T10:08:49;13.43;;;10.15;;
3841;SDS011;1936;47.074;15.336;2022-12-18T10:10:57;13.63;;;10.25;;
3841;SDS011;1936;47.074;15.336;2022-12-18T10:13:10;13.20;;;9.82;;
3841;SDS011;1936;47.074;15.336;2022-12-18T10:15:24;17.55;;;12.07;;
3841;SDS011;1936;47.074;15.336;2022-12-18T10:17:39;15.23;;;11.30;;
3841;SDS011;1936;47.074;15.336;2022-12-18T10:19:46;15.95;;;11.55;;
3841;SDS011;1936;47.074;15.336;2022-12-18T10:21:57;16.85;;;12.13;;
3841;SDS011;1936;47.074;15.336;2022-12-18T10:24:14;14.20;;;12.27;;
3841;SDS011;1936;47.074;15.336;2022-12-18T10:26:25;16.20;;;12.55;;
3841;SDS011;1936;47.074;15.336;2022-12-18T10:28:29;14.02;;;11.02;;
3841;SDS011;1936;47.074;15.336;2022-12-18T10:30:33;14.35;;;11.88;;
3841;SDS011;1936;47.074;15.336;2022-12-18T10:32:40;19.35;;;13.45;;
3841;SDS011;1936;47.074;15.336;2022-12-18T10:34:45;20.27;;;12.02;;
3841;SDS011;1936;47.074;15.336;2022-12-18T10:36:49;18.52;;;13.40;;
3841;SDS011;1936;47.074;15.336;2022-12-18T10:38:52;17.52;;;13.05;;
3841;SDS011;1936;47.074;15.336;2022-12-18T10:40:57;21.65;;;14.80;;
3841;SDS011;1936;47.074;15.336;2022-12-18T10:43:05;18.88;;;14.15;;
3841;SDS011;1936;47.074;15.336;2022-12-18T10:45:16;19.77;;;14.52;;
3841;SDS011;1936;47.074;15.336;2022-12-18T10:47:20;19.50;;;14.98;;
3841;SDS011;1936;47.074;15.336;2022-12-18T10:49:23;20.17;;;14.27;;
3841;SDS011;1936;47.074;15.336;2022-12-18T10:51:33;19.50;;;14.23;;
3841;SDS011;1936;47.074;15.336;2022-12-18T10:53:39;16.27;;;11.52;;
3841;SDS011;1936;47.074;15.336;2022-12-18T10:55:45;20.58;;;16.48;;
3841;SDS011;1936;47.074;15.336;2022-12-18T10:57:51;19.58;;;13.13;;
3841;SDS011;1936;47.074;15.336;2022-12-18T10:59:55;14.73;;;12.05;;
3841;SDS011;1936;47.074;15.336;2022-12-18T11:02:00;16.55;;;12.45;;
3841;SDS011;1936;47.074;15.336;2022-12-18T11:04:07;18.05;;;12.02;;
3841;SDS011;1936;47.074;15.336;2022-12-18T11:06:13;14.60;;;12.25;;
3841;SDS011;1936;47.074;15.336;2022-12-18T11:08:19;12.95;;;10.35;;
3841;SDS011;1936;47.074;15.336;2022-12-18T11:10:26;16.45;;;11.70;;
3841;SDS011;1936;47.074;15.336;2022-12-18T11:12:34;16.60;;;12.57;;
3841;SDS011;1936;47.074;15.336;2022-12-18T11:14:43;14.27;;;12.40;;
3841;SDS011;1936;47.074;15.336;2022-12-18T11:16:50;15.23;;;12.85;;
3841;SDS011;1936;47.074;15.336;2022-12-18T11:19:19;12.50;;;10.05;;
3841;SDS011;1936;47.074;15.336;2022-12-18T11:21:32;14.85;;;11.50;;
3841;SDS011;1936;47.074;15.336;2022-12-18T11:23:45;17.73;;;13.02;;
3841;SDS011;1936;47.074;15.336;2022-12-18T11:25:52;16.63;;;12.30;;
3841;SDS011;1936;47.074;15.336;2022-12-18T11:27:59;18.90;;;13.25;;
3841;SDS011;1936;47.074;15.336;2022-12-18T11:30:08;20.75;;;14.00;;
3841;SDS011;1936;47.074;15.336;2022-12-18T11:32:28;21.33;;;13.90;;
3841;SDS011;1936;47.074;15.336;2022-12-18T11:34:35;17.48;;;12.18;;
3841;SDS011;1936;47.074;15.336;2022-12-18T11:36:41;21.33;;;13.43;;
3841;SDS011;1936;47.074;15.336;2022-12-18T11:38:47;18.45;;;13.55;;
3841;SDS011;1936;47.074;15.336;2022-12-18T11:40:55;18.80;;;13.35;;
3841;SDS011;1936;47.074;15.336;2022-12-18T11:43:04;21.83;;;13.88;;
3841;SDS011;1936;47.074;15.336;2022-12-18T11:47:38;18.10;;;12.93;;
3841;SDS011;1936;47.074;15.336;2022-12-18T11:49:59;22.52;;;14.95;;
3841;SDS011;1936;47.074;15.336;2022-12-18T11:52:09;17.38;;;13.57;;
3841;SDS011;1936;47.074;15.336;2022-12-18T11:54:20;20.30;;;14.20;;
3841;SDS011;1936;47.074;15.336;2022-12-18T11:56:26;19.92;;;14.20;;
3841;SDS011;1936;47.074;15.336;2022-12-18T12:01:07;21.15;;;13.75;;
3841;SDS011;1936;47.074;15.336;2022-12-18T12:03:24;22.38;;;15.30;;
3841;SDS011;1936;47.074;15.336;2022-12-18T12:05:45;20.35;;;14.95;;
3841;SDS011;1936;47.074;15.336;2022-12-18T12:08:06;28.58;;;16.25;;
3841;SDS011;1936;47.074;15.336;2022-12-18T12:10:25;24.50;;;16.80;;
3841;SDS011;1936;47.074;15.336;2022-12-18T12:12:38;23.00;;;16.30;;
3841;SDS011;1936;47.074;15.336;2022-12-18T12:14:57;22.48;;;15.98;;
3841;SDS011;1936;47.074;15.336;2022-12-18T12:17:09;22.23;;;15.60;;
3841;SDS011;1936;47.074;15.336;2022-12-18T12:19:24;21.60;;;14.75;;
3841;SDS011;1936;47.074;15.336;2022-12-18T12:21:38;23.45;;;16.40;;
3841;SDS011;1936;47.074;15.336;2022-12-18T12:23:44;25.08;;;15.95;;
3841;SDS011;1936;47.074;15.336;2022-12-18T12:25:56;22.17;;;15.00;;
3841;SDS011;1936;47.074;15.336;2022-12-18T12:28:09;19.95;;;14.13;;
3841;SDS011;1936;47.074;15.336;2022-12-18T12:30:24;20.67;;;14.73;;
3841;SDS011;1936;47.074;15.336;2022-12-18T12:32:42;25.08;;;17.10;;
3841;SDS011;1936;47.074;15.336;2022-12-18T12:35:00;21.85;;;14.43;;
3841;SDS011;1936;47.074;15.336;2022-12-18T12:37:16;21.80;;;16.20;;
3841;SDS011;1936;47.074;15.336;2022-12-18T12:39:29;25.05;;;16.23;;
3841;SDS011;1936;47.074;15.336;2022-12-18T12:41:39;25.38;;;15.82;;
3841;SDS011;1936;47.074;15.336;2022-12-18T12:44:03;23.40;;;17.30;;
3841;SDS011;1936;47.074;15.336;2022-12-18T12:46:10;29.67;;;17.92;;
3841;SDS011;1936;47.074;15.336;2022-12-18T12:48:19;23.70;;;16.35;;
3841;SDS011;1936;47.074;15.336;2022-12-18T12:50:31;29.08;;;17.60;;
3841;SDS011;1936;47.074;15.336;2022-12-18T12:52:40;27.17;;;16.00;;